Cincinnati, Ohio
Traffic Map
Current Weather Conditions
Cincinnati, Ohio
Clear
Clear
37°
Feels Like: 32°
Wind Chill: 32° Ceiling: Unl
Heat Index: 37° Visibility: 10mi
Dew Point: 28° Wind: 6mph
Humidity: 70% Direction: 350° (N)
Pressure: 30.18in Gusts: 0mph
Raw Report DataKLUK 252353Z 35005KT 10SM CLR 03/M02 A3018 RMK AO2 SLP223 T00281022 10072 20028 51019
Traffic Incident Summary
Active as of:
Severity:
Category:
InformationThere was an issue retrieving the traffic information for this location. Please try a different location or try again shortly.
Advertisements
Track Severe Weather on mobile